Terminal Aerodrome Forecast
Issued by NWS Burlington, VT

Home | Current Version | Previous Version | Text Only | Print | Product List | Glossary On
Versions: 1 2 3 4 5 6 7 8 9 10 11 12 13 14 15 16
617
FTUS41 KBTV 100522
TAFBTV
TAF
KBTV 100522Z 1006/1106 32012KT P6SM VCSH OVC045
     FM101000 32008KT P6SM BKN045
     FM101600 31005KT P6SM SCT045
     FM110000 VRB03KT P6SM BKN035=

USA.gov is the U.S. government's official web portal to all federal, state and local government web resources and services.